Terminal Aerodrome Forecast
Issued by NWS Wilmington, OH

Current Version | Previous Version | Graphics & Text | Print | Product List | Glossary On
Versions: 1 2 3 4 5 6 7 8 9 10 11 12
729
FTUS41 KILN 220017 AAA
TAFCMH
TAF AMD
KCMH 220017Z 2200/2224 35008KT P6SM VCSH BKN080
     FM220100 01009KT P6SM -RA OVC070
     FM221000 02008KT P6SM BKN060
     FM221400 04010KT P6SM VCSH BKN050
     FM221800 04009KT P6SM OVC040=

USA.gov is the U.S. government's official web portal to all federal, state and local government web resources and services.